Time,TemperatureF,DewpointF,PressureIn,WindDirection,WindDirectionDegrees,WindSpeedMPH,WindSpeedGustMPH,Humidity,HourlyPrecipIn,Conditions,Clouds,dailyrainin,SoftwareType,DateUTC
2013-05-08 00:01:00,58.5,37.2,30.06,NNE,22,2.0,2.0,45,0.00,,---,0.00,VWS V14.01,2013-05-08 04:01:00,
2013-05-08 00:06:00,58.1,36.9,30.06,NNE,22,0.0,0.0,45,0.00,,---,0.00,VWS V14.01,2013-05-08 04:06:00,
2013-05-08 00:11:00,58.1,37.5,30.09,NNE,22,0.0,0.0,46,0.00,,---,0.00,VWS V14.01,2013-05-08 04:11:00,
2013-05-08 00:16:00,57.9,37.3,30.09,NNE,22,2.2,2.2,46,0.00,,---,0.00,VWS V14.01,2013-05-08 04:16:00,
2013-05-08 00:21:00,57.6,37.0,30.09,North,0,0.0,0.0,46,0.00,,---,0.00,VWS V14.01,2013-05-08 04:21:00,
2013-05-08 00:26:00,57.6,37.0,30.09,NNW,338,1.6,2.0,46,0.00,,---,0.00,VWS V14.01,2013-05-08 04:26:00,
2013-05-08 00:31:00,57.4,36.8,30.09,NNE,22,1.6,1.6,46,0.00,,---,0.00,VWS V14.01,2013-05-08 04:31:00,
2013-05-08 00:36:00,57.2,36.6,30.09,NNE,22,0.9,2.2,46,0.00,,---,0.00,VWS V14.01,2013-05-08 04:36:00,
2013-05-08 00:41:00,57.2,36.6,30.06,ENE,68,2.2,2.2,46,0.00,,---,0.00,VWS V14.01,2013-05-08 04:41:00,
2013-05-08 00:46:00,57.2,36.1,30.06,NNE,22,2.0,2.0,45,0.00,,---,0.00,VWS V14.01,2013-05-08 04:46:00,
2013-05-08 00:51:00,57.2,36.1,30.06,NNE,22,2.2,2.9,45,0.00,,---,0.00,VWS V14.01,2013-05-08 04:51:00,
2013-05-08 00:56:00,57.0,35.9,30.06,NNE,22,2.5,2.5,45,0.00,,---,0.00,VWS V14.01,2013-05-08 04:56:00,
2013-05-08 01:01:00,56.8,35.2,30.06,NE,45,1.3,2.2,44,0.00,,---,0.00,VWS V14.01,2013-05-08 05:01:00,
2013-05-08 01:06:00,56.8,35.2,30.06,NNE,22,2.2,2.2,44,0.00,,---,0.00,VWS V14.01,2013-05-08 05:06:00,
2013-05-08 01:11:00,56.8,34.6,30.06,NNE,22,2.2,2.2,43,0.00,,---,0.00,VWS V14.01,2013-05-08 05:11:00,
2013-05-08 01:16:00,56.7,33.8,30.06,NNE,22,2.5,2.7,42,0.00,,---,0.00,VWS V14.01,2013-05-08 05:16:00,
2013-05-08 01:21:00,56.8,33.4,30.06,NNE,22,1.6,1.6,41,0.00,,---,0.00,VWS V14.01,2013-05-08 05:21:00,
2013-05-08 01:26:00,56.8,32.8,30.06,NNE,22,1.6,2.0,40,0.00,,---,0.00,VWS V14.01,2013-05-08 05:26:00,
2013-05-08 01:31:00,56.8,32.2,30.06,NE,45,2.2,2.7,39,0.00,,---,0.00,VWS V14.01,2013-05-08 05:31:00,
2013-05-08 01:36:00,56.8,32.2,30.06,NNE,22,2.5,3.8,39,0.00,,---,0.00,VWS V14.01,2013-05-08 05:36:00,
2013-05-08 01:41:00,57.0,31.7,30.06,NNW,338,1.1,2.2,38,0.00,,---,0.00,VWS V14.01,2013-05-08 05:41:00,
2013-05-08 01:45:00,57.0,31.7,30.06,NE,45,3.1,3.1,38,0.00,,---,0.00,VWS V14.01,2013-05-08 05:45:00,
2013-05-08 01:50:00,57.0,31.7,30.06,NNE,22,2.5,3.1,38,0.00,,---,0.00,VWS V14.01,2013-05-08 05:50:00,
2013-05-08 01:55:00,57.2,31.2,30.03,NE,45,2.5,2.5,37,0.00,,---,0.00,VWS V14.01,2013-05-08 05:55:00,
2013-05-08 02:00:00,57.2,31.2,30.03,NE,45,2.5,2.7,37,0.00,,---,0.00,VWS V14.01,2013-05-08 06:00:00,
2013-05-08 02:05:00,57.2,30.5,30.03,North,0,1.1,2.0,36,0.00,,---,0.00,VWS V14.01,2013-05-08 06:05:00,
2013-05-08 02:10:00,57.2,30.5,30.03,NNE,22,1.6,2.2,36,0.00,,---,0.00,VWS V14.01,2013-05-08 06:10:00,
2013-05-08 02:15:00,57.6,30.8,30.03,NNE,22,2.2,2.2,36,0.00,,---,0.00,VWS V14.01,2013-05-08 06:15:00,
2013-05-08 02:20:00,57.6,30.8,30.03,NNE,22,2.2,2.9,36,0.00,,---,0.00,VWS V14.01,2013-05-08 06:20:00,
2013-05-08 02:25:00,57.6,30.8,30.06,NNE,22,2.0,2.7,36,0.00,,---,0.00,VWS V14.01,2013-05-08 06:25:00,
2013-05-08 02:30:00,57.7,31.0,30.06,NNE,22,1.3,2.2,36,0.00,,---,0.00,VWS V14.01,2013-05-08 06:30:00,
2013-05-08 02:35:00,57.7,31.0,30.06,NNE,22,0.9,0.9,36,0.00,,---,0.00,VWS V14.01,2013-05-08 06:35:00,
2013-05-08 02:40:00,57.6,30.8,30.06,NNE,22,1.1,2.2,36,0.00,,---,0.00,VWS V14.01,2013-05-08 06:40:00,
2013-05-08 02:45:00,57.6,30.8,30.06,NNE,22,2.7,2.7,36,0.00,,---,0.00,VWS V14.01,2013-05-08 06:45:00,
2013-05-08 02:50:00,57.6,30.8,30.06,NNE,22,2.9,2.9,36,0.00,,---,0.00,VWS V14.01,2013-05-08 06:50:00,
2013-05-08 02:55:00,57.4,30.7,30.06,NNE,22,2.9,2.9,36,0.00,,---,0.00,VWS V14.01,2013-05-08 06:55:00,
2013-05-08 03:00:00,57.4,30.7,30.06,NNE,22,2.2,2.9,36,0.00,,---,0.00,VWS V14.01,2013-05-08 07:00:00,
2013-05-08 03:05:00,57.2,30.5,30.06,NNE,22,1.6,1.6,36,0.00,,---,0.00,VWS V14.01,2013-05-08 07:05:00,
2013-05-08 03:10:00,57.2,30.5,30.06,NNE,22,2.7,2.7,36,0.00,,---,0.00,VWS V14.01,2013-05-08 07:10:00,
2013-05-08 03:15:00,57.2,30.5,30.09,NNE,22,1.6,1.6,36,0.00,,---,0.00,VWS V14.01,2013-05-08 07:15:00,
2013-05-08 03:20:00,56.8,30.2,30.09,NNE,22,2.0,2.0,36,0.00,,---,0.00,VWS V14.01,2013-05-08 07:20:00,
2013-05-08 03:25:00,56.7,30.0,30.09,NNE,22,2.2,2.2,36,0.00,,---,0.00,VWS V14.01,2013-05-08 07:25:00,
2013-05-08 03:30:00,56.3,29.7,30.06,NNE,22,2.0,2.5,36,0.00,,---,0.00,VWS V14.01,2013-05-08 07:30:00,
2013-05-08 03:35:00,56.1,29.5,30.06,NNE,22,2.7,2.7,36,0.00,,---,0.00,VWS V14.01,2013-05-08 07:35:00,
2013-05-08 03:40:00,55.9,29.4,30.06,NNE,22,2.9,2.9,36,0.00,,---,0.00,VWS V14.01,2013-05-08 07:40:00,
2013-05-08 03:45:00,55.8,29.2,30.06,NNE,22,2.5,2.5,36,0.00,,---,0.00,VWS V14.01,2013-05-08 07:45:00,
2013-05-08 03:50:00,55.6,29.1,30.06,NNE,22,2.7,2.7,36,0.00,,---,0.00,VWS V14.01,2013-05-08 07:50:00,
2013-05-08 03:55:00,55.4,29.6,30.06,NNE,22,1.6,2.2,37,0.00,,---,0.00,VWS V14.01,2013-05-08 07:55:00,
2013-05-08 04:00:00,55.2,29.4,30.06,NNE,22,2.5,2.5,37,0.00,,---,0.00,VWS V14.01,2013-05-08 08:00:00,
2013-05-08 04:05:00,54.9,29.1,30.06,NNE,22,2.0,2.0,37,0.00,,---,0.00,VWS V14.01,2013-05-08 08:05:00,
2013-05-08 04:10:00,54.9,29.1,30.06,NNE,22,1.6,1.6,37,0.00,,---,0.00,VWS V14.01,2013-05-08 08:10:00,
2013-05-08 04:15:00,54.7,28.9,30.06,NNE,22,1.6,1.6,37,0.00,,---,0.00,VWS V14.01,2013-05-08 08:15:00,
2013-05-08 04:20:00,54.7,28.9,30.06,North,0,0.0,0.0,37,0.00,,---,0.00,VWS V14.01,2013-05-08 08:20:00,
2013-05-08 04:25:00,54.7,28.9,30.06,NNE,22,0.0,0.0,37,0.00,,---,0.00,VWS V14.01,2013-05-08 08:25:00,
2013-05-08 04:30:00,54.5,28.8,30.06,NNE,22,1.3,2.2,37,0.00,,---,0.00,VWS V14.01,2013-05-08 08:30:00,
2013-05-08 04:35:00,54.5,28.8,30.06,NNE,22,2.7,2.7,37,0.00,,---,0.00,VWS V14.01,2013-05-08 08:35:00,
2013-05-08 04:40:00,54.3,28.6,30.06,NNE,22,1.6,2.2,37,0.00,,---,0.00,VWS V14.01,2013-05-08 08:40:00,
2013-05-08 04:45:00,54.3,28.6,30.06,NNE,22,2.2,2.2,37,0.00,,---,0.00,VWS V14.01,2013-05-08 08:45:00,
2013-05-08 04:50:00,54.1,28.5,30.06,North,0,0.0,1.3,37,0.00,,---,0.00,VWS V14.01,2013-05-08 08:50:00,
2013-05-08 04:55:00,54.1,28.5,30.06,NNE,22,2.9,2.9,37,0.00,,---,0.00,VWS V14.01,2013-05-08 08:55:00,
2013-05-08 05:00:00,54.0,28.3,30.03,NNE,22,2.0,2.9,37,0.00,,---,0.00,VWS V14.01,2013-05-08 09:00:00,
2013-05-08 05:05:00,53.8,28.1,30.03,NNE,22,1.3,2.9,37,0.00,,---,0.00,VWS V14.01,2013-05-08 09:05:00,
2013-05-08 05:10:00,53.8,28.1,30.03,NNE,22,2.0,3.1,37,0.00,,---,0.00,VWS V14.01,2013-05-08 09:10:00,
2013-05-08 05:15:00,53.6,28.0,30.06,North,0,1.6,3.4,37,0.00,,---,0.00,VWS V14.01,2013-05-08 09:15:00,
2013-05-08 05:20:00,53.6,28.0,30.06,NNE,22,2.0,3.1,37,0.00,,---,0.00,VWS V14.01,2013-05-08 09:20:00,
2013-05-08 05:25:00,53.6,28.6,30.06,NNE,22,2.0,2.2,38,0.00,,---,0.00,VWS V14.01,2013-05-08 09:25:00,
2013-05-08 05:30:00,53.4,28.5,30.06,NNE,22,2.0,2.0,38,0.00,,---,0.00,VWS V14.01,2013-05-08 09:30:00,
2013-05-08 05:35:00,53.2,28.3,30.06,NNE,22,3.6,3.6,38,0.00,,---,0.00,VWS V14.01,2013-05-08 09:35:00,
2013-05-08 05:40:00,53.2,28.3,30.06,NNE,22,1.3,2.5,38,0.00,,---,0.00,VWS V14.01,2013-05-08 09:40:00,
2013-05-08 05:45:00,53.2,28.3,30.06,NNE,22,2.9,2.9,38,0.00,,---,0.00,VWS V14.01,2013-05-08 09:45:00,
2013-05-08 05:50:00,53.2,28.3,30.06,North,0,1.6,2.7,38,0.00,,---,0.00,VWS V14.01,2013-05-08 09:50:00,
2013-05-08 05:55:00,53.2,28.3,30.06,NNE,22,0.9,2.0,38,0.00,,---,0.00,VWS V14.01,2013-05-08 09:55:00,
2013-05-08 06:00:00,53.2,28.3,30.06,NNE,22,3.8,3.8,38,0.00,,---,0.00,VWS V14.01,2013-05-08 10:00:00,
2013-05-08 06:05:00,53.2,28.3,30.06,NNE,22,1.3,2.5,38,0.00,,---,0.00,VWS V14.01,2013-05-08 10:05:00,
2013-05-08 06:10:00,53.1,28.8,30.06,North,0,2.5,2.9,39,0.00,,---,0.00,VWS V14.01,2013-05-08 10:10:00,
2013-05-08 06:15:00,53.1,28.8,30.06,NNE,22,2.9,2.9,39,0.00,,---,0.00,VWS V14.01,2013-05-08 10:15:00,
2013-05-08 06:20:00,53.1,28.8,30.06,NNE,22,2.7,2.7,39,0.00,,---,0.00,VWS V14.01,2013-05-08 10:20:00,
2013-05-08 06:25:00,52.9,28.6,30.06,NNE,22,2.0,2.5,39,0.00,,---,0.00,VWS V14.01,2013-05-08 10:25:00,
2013-05-08 06:30:00,52.7,28.5,30.06,NNE,22,2.5,2.9,39,0.00,,---,0.00,VWS V14.01,2013-05-08 10:30:00,
2013-05-08 06:35:00,52.3,28.8,30.06,NNE,22,2.5,2.5,40,0.00,,---,0.00,VWS V14.01,2013-05-08 10:35:00,
2013-05-08 06:40:00,52.3,28.8,30.06,NNE,22,2.5,2.5,40,0.00,,---,0.00,VWS V14.01,2013-05-08 10:40:00,
2013-05-08 06:45:00,52.3,28.8,30.06,NNE,22,2.7,2.7,40,0.00,,---,0.00,VWS V14.01,2013-05-08 10:45:00,
2013-05-08 06:50:00,52.2,28.6,30.06,NNE,22,2.5,2.9,40,0.00,,---,0.00,VWS V14.01,2013-05-08 10:50:00,
2013-05-08 06:55:00,52.0,29.0,30.06,NNE,22,2.0,2.5,41,0.00,,---,0.00,VWS V14.01,2013-05-08 10:55:00,
2013-05-08 07:00:00,52.0,29.0,30.06,NNE,22,2.2,3.4,41,0.00,,---,0.00,VWS V14.01,2013-05-08 11:00:00,
2013-05-08 07:05:00,52.0,29.0,30.06,NNE,22,2.0,2.5,41,0.00,,---,0.00,VWS V14.01,2013-05-08 11:05:00,
2013-05-08 07:10:00,52.0,29.6,30.06,NNE,22,3.1,3.1,42,0.00,,---,0.00,VWS V14.01,2013-05-08 11:10:00,
2013-05-08 07:15:00,52.2,30.4,30.06,NNE,22,1.3,2.2,43,0.00,,---,0.00,VWS V14.01,2013-05-08 11:15:00,
2013-05-08 07:20:00,52.3,31.1,30.06,NNE,22,3.6,3.6,44,0.00,,---,0.00,VWS V14.01,2013-05-08 11:20:00,
2013-05-08 07:25:00,52.7,31.4,30.06,NNE,22,3.1,3.1,44,0.00,,---,0.00,VWS V14.01,2013-05-08 11:25:00,
2013-05-08 07:30:00,52.9,32.7,30.06,North,0,2.7,2.9,46,0.00,,---,0.00,VWS V14.01,2013-05-08 11:30:00,
2013-05-08 07:35:00,53.2,33.0,30.06,NNW,338,1.3,2.0,46,0.00,,---,0.00,VWS V14.01,2013-05-08 11:35:00,
2013-05-08 07:40:00,53.6,33.3,30.06,North,0,2.7,3.1,46,0.00,,---,0.00,VWS V14.01,2013-05-08 11:40:00,
2013-05-08 07:45:00,54.0,34.7,30.06,NNE,22,2.5,2.7,48,0.00,,---,0.00,VWS V14.01,2013-05-08 11:45:00,
2013-05-08 07:50:00,54.5,34.7,30.06,NE,45,3.8,3.8,47,0.00,,---,0.00,VWS V14.01,2013-05-08 11:50:00,
2013-05-08 07:55:00,54.7,35.4,30.06,NNE,22,2.2,2.9,48,0.00,,---,0.00,VWS V14.01,2013-05-08 11:55:00,
2013-05-08 08:00:00,56.3,35.8,30.06,NNW,338,3.6,3.6,46,0.00,,---,0.00,VWS V14.01,2013-05-08 12:00:00,
2013-05-08 08:05:00,57.4,36.8,30.06,NNW,338,2.2,2.5,46,0.00,,---,0.00,VWS V14.01,2013-05-08 12:05:00,
2013-05-08 08:10:00,58.5,37.8,30.06,NNW,338,1.6,2.7,46,0.00,,---,0.00,VWS V14.01,2013-05-08 12:10:00,
2013-05-08 08:15:00,59.5,38.2,30.06,NNW,338,2.2,2.2,45,0.00,,---,0.00,VWS V14.01,2013-05-08 12:15:00,
2013-05-08 08:20:00,60.6,38.6,30.06,NNW,338,2.0,2.5,44,0.00,,---,0.00,VWS V14.01,2013-05-08 12:20:00,
2013-05-08 08:24:00,61.0,38.3,30.06,NNW,338,4.0,4.0,43,0.00,,---,0.00,VWS V14.01,2013-05-08 12:24:00,
2013-05-08 08:29:00,60.6,36.8,30.06,NNE,22,5.4,5.4,41,0.00,,---,0.00,VWS V14.01,2013-05-08 12:29:00,
2013-05-08 08:34:00,61.0,37.1,30.06,NNW,338,2.0,2.7,41,0.00,,---,0.00,VWS V14.01,2013-05-08 12:34:00,
2013-05-08 08:39:00,62.1,38.1,30.06,NNW,338,4.0,4.0,41,0.00,,---,0.00,VWS V14.01,2013-05-08 12:39:00,
2013-05-08 08:44:00,63.5,38.8,30.06,NW,315,1.3,3.8,40,0.00,,---,0.00,VWS V14.01,2013-05-08 12:44:00,
2013-05-08 08:49:00,64.8,38.6,30.06,ENE,68,1.6,2.5,38,0.00,,---,0.00,VWS V14.01,2013-05-08 12:49:00,
2013-05-08 08:54:00,66.2,39.2,30.06,WNW,292,1.3,1.3,37,0.00,,---,0.00,VWS V14.01,2013-05-08 12:54:00,
2013-05-08 08:59:00,67.5,40.3,30.06,NNW,338,1.3,2.7,37,0.00,,---,0.00,VWS V14.01,2013-05-08 12:59:00,
2013-05-08 09:04:00,67.1,38.6,30.06,WNW,292,0.0,2.5,35,0.00,,---,0.00,VWS V14.01,2013-05-08 13:04:00,
2013-05-08 09:09:00,68.0,40.1,30.06,ESE,112,1.1,1.1,36,0.00,,---,0.00,VWS V14.01,2013-05-08 13:09:00,
2013-05-08 09:14:00,68.2,39.5,30.06,WNW,292,1.6,2.7,35,0.00,,---,0.00,VWS V14.01,2013-05-08 13:14:00,
2013-05-08 09:19:00,68.7,39.2,30.06,NW,315,0.0,1.1,34,0.00,,---,0.00,VWS V14.01,2013-05-08 13:19:00,
2013-05-08 09:24:00,70.0,40.3,30.06,ENE,68,2.5,3.4,34,0.00,,---,0.00,VWS V14.01,2013-05-08 13:24:00,
2013-05-08 09:29:00,70.9,40.4,30.06,NE,45,2.7,2.7,33,0.00,,---,0.00,VWS V14.01,2013-05-08 13:29:00,
2013-05-08 09:34:00,70.9,40.4,30.06,North,0,1.6,2.0,33,0.00,,---,0.00,VWS V14.01,2013-05-08 13:34:00,
2013-05-08 09:39:00,70.5,40.1,30.06,NNE,22,3.6,3.6,33,0.00,,---,0.00,VWS V14.01,2013-05-08 13:39:00,
2013-05-08 09:44:00,70.3,39.9,30.06,NW,315,0.0,0.0,33,0.00,,---,0.00,VWS V14.01,2013-05-08 13:44:00,
2013-05-08 09:49:00,70.3,39.9,30.06,NNW,338,3.1,3.1,33,0.00,,---,0.00,VWS V14.01,2013-05-08 13:49:00,
2013-05-08 09:54:00,69.8,38.6,30.06,North,0,4.9,4.9,32,0.00,,---,0.00,VWS V14.01,2013-05-08 13:54:00,
2013-05-08 09:59:00,69.8,38.6,30.06,NE,45,4.9,4.9,32,0.00,,---,0.00,VWS V14.01,2013-05-08 13:59:00,
2013-05-08 10:04:00,69.8,38.6,30.06,ENE,68,2.9,2.9,32,0.00,,---,0.00,VWS V14.01,2013-05-08 14:04:00,
2013-05-08 10:09:00,70.0,38.8,30.06,NE,45,1.1,1.3,32,0.00,,---,0.00,VWS V14.01,2013-05-08 14:09:00,
2013-05-08 10:14:00,70.3,39.1,30.03,NNE,22,3.4,3.4,32,0.00,,---,0.00,VWS V14.01,2013-05-08 14:14:00,
2013-05-08 10:19:00,70.5,39.3,30.03,NNE,22,3.6,3.6,32,0.00,,---,0.00,VWS V14.01,2013-05-08 14:19:00,
2013-05-08 10:24:00,70.3,39.1,30.03,NNE,22,2.2,3.8,32,0.00,,---,0.00,VWS V14.01,2013-05-08 14:24:00,
2013-05-08 10:29:00,70.3,39.1,30.03,ESE,112,2.7,2.7,32,0.00,,---,0.00,VWS V14.01,2013-05-08 14:29:00,
2013-05-08 10:34:00,70.7,39.4,30.03,North,0,3.1,3.1,32,0.00,,---,0.00,VWS V14.01,2013-05-08 14:34:00,
2013-05-08 10:39:00,70.7,39.4,30.03,ENE,68,3.1,3.1,32,0.00,,---,0.00,VWS V14.01,2013-05-08 14:39:00,
2013-05-08 10:44:00,71.8,40.4,30.03,NNE,22,3.1,3.6,32,0.00,,---,0.00,VWS V14.01,2013-05-08 14:44:00,
2013-05-08 10:49:00,73.6,41.1,30.03,East,90,1.3,1.3,31,0.00,,---,0.00,VWS V14.01,2013-05-08 14:49:00,
2013-05-08 10:54:00,75.2,41.7,30.03,NE,45,6.3,6.5,30,0.00,,---,0.00,VWS V14.01,2013-05-08 14:54:00,
2013-05-08 10:59:00,77.4,42.7,30.03,ENE,68,2.2,2.9,29,0.00,,---,0.00,VWS V14.01,2013-05-08 14:59:00,
2013-05-08 11:04:00,79.0,41.2,30.03,NNE,22,4.3,4.3,26,0.00,,---,0.00,VWS V14.01,2013-05-08 15:04:00,
2013-05-08 11:09:00,80.2,42.3,30.03,NNE,22,1.6,2.5,26,0.00,,---,0.00,VWS V14.01,2013-05-08 15:09:00,
2013-05-08 11:14:00,81.1,42.0,30.03,NNW,338,2.2,3.1,25,0.00,,---,0.00,VWS V14.01,2013-05-08 15:14:00,
2013-05-08 11:19:00,80.8,40.7,30.03,NNE,22,1.3,2.2,24,0.00,,---,0.00,VWS V14.01,2013-05-08 15:19:00,
2013-05-08 11:24:00,81.5,40.2,30.03,NNW,338,2.0,2.5,23,0.00,,---,0.00,VWS V14.01,2013-05-08 15:24:00,
2013-05-08 11:29:00,80.6,39.4,30.00,NNE,22,2.9,2.9,23,0.00,,---,0.00,VWS V14.01,2013-05-08 15:29:00,
2013-05-08 11:34:00,81.0,38.6,30.00,NNE,22,5.6,5.6,22,0.00,,---,0.00,VWS V14.01,2013-05-08 15:34:00,
2013-05-08 11:39:00,80.8,38.4,30.00,NNW,338,2.7,4.3,22,0.00,,---,0.00,VWS V14.01,2013-05-08 15:39:00,
2013-05-08 11:44:00,81.7,39.2,30.00,WSW,248,2.0,3.4,22,0.00,,---,0.00,VWS V14.01,2013-05-08 15:44:00,
2013-05-08 11:49:00,82.0,39.5,30.00,NNW,338,2.5,2.5,22,0.00,,---,0.00,VWS V14.01,2013-05-08 15:49:00,
2013-05-08 11:54:00,82.4,39.8,30.00,NE,45,1.3,2.7,22,0.00,,---,0.00,VWS V14.01,2013-05-08 15:54:00,
2013-05-08 11:59:00,82.2,39.6,30.00,NNE,22,2.0,2.5,22,0.00,,---,0.00,VWS V14.01,2013-05-08 15:59:00,
2013-05-08 12:04:00,82.4,39.8,30.00,NE,45,4.0,4.0,22,0.00,,---,0.00,VWS V14.01,2013-05-08 16:04:00,
2013-05-08 12:09:00,82.6,38.7,30.00,WNW,292,4.0,4.0,21,0.00,,---,0.00,VWS V14.01,2013-05-08 16:09:00,
2013-05-08 12:14:00,83.3,40.5,30.00,WNW,292,3.4,4.0,22,0.00,,---,0.00,VWS V14.01,2013-05-08 16:14:00,
2013-05-08 12:19:00,83.7,39.6,30.00,WNW,292,3.1,3.8,21,0.00,,---,0.00,VWS V14.01,2013-05-08 16:19:00,
2013-05-08 12:24:00,84.0,41.1,30.00,NNE,22,4.0,4.0,22,0.00,,---,0.00,VWS V14.01,2013-05-08 16:24:00,
2013-05-08 12:29:00,84.0,39.9,30.00,NNW,338,3.1,3.1,21,0.00,,---,0.00,VWS V14.01,2013-05-08 16:29:00,
2013-05-08 12:34:00,83.7,39.6,30.00,ENE,68,2.5,5.4,21,0.00,,---,0.00,VWS V14.01,2013-05-08 16:34:00,
2013-05-08 12:39:00,83.7,39.6,30.00,NNW,338,3.4,3.4,21,0.00,,---,0.00,VWS V14.01,2013-05-08 16:39:00,
2013-05-08 12:44:00,83.1,39.2,29.97,NNE,22,2.2,3.6,21,0.00,,---,0.00,VWS V14.01,2013-05-08 16:44:00,
2013-05-08 12:49:00,83.5,39.5,29.97,ENE,68,3.1,3.6,21,0.00,,---,0.00,VWS V14.01,2013-05-08 16:49:00,
2013-05-08 12:54:00,83.1,39.2,29.97,NNE,22,2.0,5.6,21,0.00,,---,0.00,VWS V14.01,2013-05-08 16:54:00,
2013-05-08 12:59:00,83.1,39.2,30.00,ENE,68,1.6,3.8,21,0.00,,---,0.00,VWS V14.01,2013-05-08 16:59:00,
2013-05-08 13:04:00,84.0,39.9,30.00,North,0,4.9,5.4,21,0.00,,---,0.00,VWS V14.01,2013-05-08 17:04:00,
2013-05-08 13:09:00,83.5,39.5,30.00,NNE,22,4.0,4.9,21,0.00,,---,0.00,VWS V14.01,2013-05-08 17:09:00,
2013-05-08 13:14:00,81.7,38.0,30.00,East,90,6.3,6.3,21,0.00,,---,0.00,VWS V14.01,2013-05-08 17:14:00,
2013-05-08 13:19:00,79.7,36.3,30.00,NNE,22,3.4,3.8,21,0.00,,---,0.00,VWS V14.01,2013-05-08 17:19:00,
2013-05-08 13:24:00,79.5,37.4,30.00,East,90,0.0,1.6,22,0.00,,---,0.00,VWS V14.01,2013-05-08 17:24:00,
2013-05-08 13:29:00,83.7,39.6,30.00,WNW,292,2.5,3.8,21,0.00,,---,0.00,VWS V14.01,2013-05-08 17:29:00,
2013-05-08 13:34:00,85.8,40.2,30.00,ESE,112,3.6,3.6,20,0.00,,---,0.00,VWS V14.01,2013-05-08 17:34:00,
2013-05-08 13:39:00,87.6,41.6,30.00,NNE,22,1.6,2.2,20,0.00,,---,0.00,VWS V14.01,2013-05-08 17:39:00,
2013-05-08 13:44:00,86.9,39.7,30.00,NE,45,3.6,6.5,19,0.00,,---,0.00,VWS V14.01,2013-05-08 17:44:00,
2013-05-08 13:49:00,88.0,40.6,30.00,SSE,158,2.7,3.4,19,0.00,,---,0.00,VWS V14.01,2013-05-08 17:49:00,
2013-05-08 13:54:00,87.4,40.2,30.00,NE,45,2.5,3.8,19,0.00,,---,0.00,VWS V14.01,2013-05-08 17:54:00,
2013-05-08 13:59:00,83.7,38.4,30.00,NNE,22,1.1,2.2,20,0.00,,---,0.00,VWS V14.01,2013-05-08 17:59:00,
2013-05-08 14:04:00,81.7,38.0,30.00,NNW,338,3.1,3.4,21,0.00,,---,0.00,VWS V14.01,2013-05-08 18:04:00,
2013-05-08 14:09:00,80.4,37.0,30.00,WNW,292,2.5,2.5,21,0.00,,---,0.00,VWS V14.01,2013-05-08 18:09:00,
2013-05-08 14:14:00,79.7,36.3,30.00,WNW,292,4.0,4.5,21,0.00,,---,0.00,VWS V14.01,2013-05-08 18:14:00,
2013-05-08 14:19:00,83.5,38.2,30.00,North,0,2.7,4.0,20,0.00,,---,0.00,VWS V14.01,2013-05-08 18:19:00,
2013-05-08 14:24:00,83.1,37.9,30.00,West,270,5.8,7.8,20,0.00,,---,0.00,VWS V14.01,2013-05-08 18:24:00,
2013-05-08 14:29:00,84.2,38.8,29.97,NNE,22,2.9,3.6,20,0.00,,---,0.00,VWS V14.01,2013-05-08 18:29:00,
2013-05-08 14:34:00,84.2,38.8,29.97,WSW,248,1.3,3.1,20,0.00,,---,0.00,VWS V14.01,2013-05-08 18:34:00,
2013-05-08 14:39:00,83.5,38.2,29.97,South,180,0.0,2.9,20,0.00,,---,0.00,VWS V14.01,2013-05-08 18:39:00,
2013-05-08 14:44:00,81.5,36.6,29.97,NNE,22,2.5,4.3,20,0.00,,---,0.00,VWS V14.01,2013-05-08 18:44:00,
2013-05-08 14:49:00,79.9,36.5,29.97,NW,315,2.9,3.8,21,0.00,,---,0.00,VWS V14.01,2013-05-08 18:49:00,
2013-05-08 14:53:00,78.8,35.6,29.97,NW,315,0.0,1.1,21,0.00,,---,0.00,VWS V14.01,2013-05-08 18:53:00,
2013-05-08 14:58:00,78.3,35.2,29.97,NNW,338,0.0,2.0,21,0.00,,---,0.00,VWS V14.01,2013-05-08 18:58:00,
2013-05-08 15:03:00,77.4,34.4,29.97,NW,315,0.0,0.0,21,0.00,,---,0.00,VWS V14.01,2013-05-08 19:03:00,
2013-05-08 15:08:00,77.0,35.3,29.97,NNW,338,1.3,3.4,22,0.00,,---,0.00,VWS V14.01,2013-05-08 19:08:00,
2013-05-08 15:13:00,76.6,35.0,29.97,NNW,338,0.0,1.1,22,0.00,,---,0.00,VWS V14.01,2013-05-08 19:13:00,
2013-05-08 15:18:00,76.6,35.0,29.97,WNW,292,1.6,2.5,22,0.00,,---,0.00,VWS V14.01,2013-05-08 19:18:00,
2013-05-08 15:23:00,77.2,35.4,29.97,West,270,1.1,2.2,22,0.00,,---,0.00,VWS V14.01,2013-05-08 19:23:00,
2013-05-08 15:28:00,78.1,36.2,29.97,NNW,338,2.0,2.9,22,0.00,,---,0.00,VWS V14.01,2013-05-08 19:28:00,
2013-05-08 15:33:00,79.3,37.2,29.97,NNE,22,0.0,0.0,22,0.00,,---,0.00,VWS V14.01,2013-05-08 19:33:00,
2013-05-08 15:38:00,78.8,35.6,29.97,NNE,22,3.1,4.0,21,0.00,,---,0.00,VWS V14.01,2013-05-08 19:38:00,
2013-05-08 15:43:00,78.8,35.6,29.94,NNW,338,0.9,4.0,21,0.00,,---,0.00,VWS V14.01,2013-05-08 19:43:00,
2013-05-08 15:48:00,79.0,35.8,29.94,WNW,292,2.5,2.7,21,0.00,,---,0.00,VWS V14.01,2013-05-08 19:48:00,
2013-05-08 15:53:00,79.3,36.0,29.94,NNE,22,1.1,1.1,21,0.00,,---,0.00,VWS V14.01,2013-05-08 19:53:00,
2013-05-08 15:58:00,79.2,35.9,29.94,WNW,292,3.6,3.6,21,0.00,,---,0.00,VWS V14.01,2013-05-08 19:58:00,
2013-05-08 16:03:00,79.3,36.0,29.94,NW,315,2.5,2.5,21,0.00,,---,0.00,VWS V14.01,2013-05-08 20:03:00,
2013-05-08 16:08:00,79.7,36.3,29.94,NW,315,5.8,5.8,21,0.00,,---,0.00,VWS V14.01,2013-05-08 20:08:00,
2013-05-08 16:13:00,79.7,36.3,29.94,NNE,22,2.0,2.0,21,0.00,,---,0.00,VWS V14.01,2013-05-08 20:13:00,
2013-05-08 16:18:00,80.1,36.7,29.94,WSW,248,1.6,4.7,21,0.00,,---,0.00,VWS V14.01,2013-05-08 20:18:00,
2013-05-08 16:23:00,80.2,36.8,29.94,North,0,2.9,2.9,21,0.00,,---,0.00,VWS V14.01,2013-05-08 20:23:00,
2013-05-08 16:28:00,80.2,36.8,29.94,NNW,338,3.4,3.4,21,0.00,,---,0.00,VWS V14.01,2013-05-08 20:28:00,
2013-05-08 16:33:00,80.1,36.7,29.94,ENE,68,1.1,1.1,21,0.00,,---,0.00,VWS V14.01,2013-05-08 20:33:00,
2013-05-08 16:38:00,79.9,36.5,29.94,North,0,3.6,3.6,21,0.00,,---,0.00,VWS V14.01,2013-05-08 20:38:00,
2013-05-08 16:43:00,79.0,35.8,29.94,NE,45,0.0,2.2,21,0.00,,---,0.00,VWS V14.01,2013-05-08 20:43:00,
2013-05-08 16:48:00,79.0,35.8,29.94,NNW,338,1.1,1.3,21,0.00,,---,0.00,VWS V14.01,2013-05-08 20:48:00,
2013-05-08 16:53:00,78.8,35.6,29.94,ENE,68,4.0,5.4,21,0.00,,---,0.00,VWS V14.01,2013-05-08 20:53:00,
2013-05-08 16:58:00,78.8,35.6,29.94,NE,45,5.4,5.4,21,0.00,,---,0.00,VWS V14.01,2013-05-08 20:58:00,
2013-05-08 17:03:00,78.6,35.5,29.94,NNW,338,5.6,5.8,21,0.00,,---,0.00,VWS V14.01,2013-05-08 21:03:00,
2013-05-08 17:08:00,78.4,35.3,29.94,NNE,22,2.0,2.0,21,0.00,,---,0.00,VWS V14.01,2013-05-08 21:08:00,
2013-05-08 17:13:00,78.3,35.2,29.94,NNE,22,4.7,5.6,21,0.00,,---,0.00,VWS V14.01,2013-05-08 21:13:00,
2013-05-08 17:18:00,78.3,35.2,29.94,WNW,292,1.3,1.3,21,0.00,,---,0.00,VWS V14.01,2013-05-08 21:18:00,
2013-05-08 17:23:00,78.3,35.2,29.94,ENE,68,4.3,4.3,21,0.00,,---,0.00,VWS V14.01,2013-05-08 21:23:00,
2013-05-08 17:28:00,78.4,35.3,29.94,NNW,338,5.6,5.6,21,0.00,,---,0.00,VWS V14.01,2013-05-08 21:28:00,
2013-05-08 17:33:00,77.9,34.9,29.94,NNW,338,3.1,3.1,21,0.00,,---,0.00,VWS V14.01,2013-05-08 21:33:00,
2013-05-08 17:38:00,77.7,34.7,29.94,SW,225,4.0,5.6,21,0.00,,---,0.00,VWS V14.01,2013-05-08 21:38:00,
2013-05-08 17:43:00,77.7,34.7,29.97,NNW,338,2.7,2.7,21,0.00,,---,0.00,VWS V14.01,2013-05-08 21:43:00,
2013-05-08 17:48:00,77.9,34.9,29.97,ENE,68,3.1,3.8,21,0.00,,---,0.00,VWS V14.01,2013-05-08 21:48:00,
2013-05-08 17:53:00,77.9,34.9,29.97,NNE,22,2.9,4.3,21,0.00,,---,0.00,VWS V14.01,2013-05-08 21:53:00,
2013-05-08 17:58:00,77.9,34.9,29.97,NNE,22,4.0,4.0,21,0.00,,---,0.00,VWS V14.01,2013-05-08 21:58:00,
2013-05-08 18:03:00,77.9,34.9,29.97,WNW,292,3.6,3.6,21,0.00,,---,0.00,VWS V14.01,2013-05-08 22:03:00,
2013-05-08 18:08:00,77.7,34.7,29.97,SE,135,0.9,4.0,21,0.00,,---,0.00,VWS V14.01,2013-05-08 22:08:00,
2013-05-08 18:13:00,77.4,35.6,29.97,South,180,2.0,2.0,22,0.00,,---,0.00,VWS V14.01,2013-05-08 22:13:00,
2013-05-08 18:18:00,76.5,36.0,29.97,SSE,158,2.0,4.3,23,0.00,,---,0.00,VWS V14.01,2013-05-08 22:18:00,
2013-05-08 18:23:00,75.6,35.2,29.97,East,90,3.8,4.9,23,0.00,,---,0.00,VWS V14.01,2013-05-08 22:23:00,
2013-05-08 18:28:00,75.0,35.8,29.97,ESE,112,4.3,4.7,24,0.00,,---,0.00,VWS V14.01,2013-05-08 22:28:00,
2013-05-08 18:33:00,74.3,35.2,29.97,SE,135,1.6,2.5,24,0.00,,---,0.00,VWS V14.01,2013-05-08 22:33:00,
2013-05-08 18:38:00,73.8,35.8,29.97,SSE,158,3.4,3.4,25,0.00,,---,0.00,VWS V14.01,2013-05-08 22:38:00,
2013-05-08 18:43:00,73.4,35.5,30.00,SSE,158,1.6,2.7,25,0.00,,---,0.00,VWS V14.01,2013-05-08 22:43:00,
2013-05-08 18:48:00,73.2,36.3,30.00,NE,45,2.0,2.0,26,0.00,,---,0.00,VWS V14.01,2013-05-08 22:48:00,
2013-05-08 18:53:00,72.9,36.0,30.00,NNE,22,2.0,2.5,26,0.00,,---,0.00,VWS V14.01,2013-05-08 22:53:00,
2013-05-08 18:58:00,72.7,36.8,29.97,SSE,158,2.5,2.5,27,0.00,,---,0.00,VWS V14.01,2013-05-08 22:58:00,
2013-05-08 19:03:00,72.3,36.5,29.97,East,90,1.1,2.5,27,0.00,,---,0.00,VWS V14.01,2013-05-08 23:03:00,
2013-05-08 19:08:00,72.3,37.4,29.97,East,90,0.9,3.4,28,0.00,,---,0.00,VWS V14.01,2013-05-08 23:08:00,
2013-05-08 19:13:00,72.3,38.3,29.97,SSE,158,2.9,3.1,29,0.00,,---,0.00,VWS V14.01,2013-05-08 23:13:00,
2013-05-08 19:18:00,72.1,38.2,29.97,NNW,338,1.1,3.6,29,0.00,,---,0.00,VWS V14.01,2013-05-08 23:18:00,
2013-05-08 19:23:00,72.1,38.2,29.97,SE,135,1.6,2.7,29,0.00,,---,0.00,VWS V14.01,2013-05-08 23:23:00,
2013-05-08 19:28:00,72.1,38.2,29.97,SE,135,2.9,2.9,29,0.00,,---,0.00,VWS V14.01,2013-05-08 23:28:00,
2013-05-08 19:33:00,72.1,39.0,29.97,ENE,68,2.7,3.1,30,0.00,,---,0.00,VWS V14.01,2013-05-08 23:33:00,
2013-05-08 19:38:00,72.0,38.0,29.97,SSE,158,1.1,2.0,29,0.00,,---,0.00,VWS V14.01,2013-05-08 23:38:00,
2013-05-08 19:43:00,72.0,38.0,29.97,SSE,158,2.5,2.7,29,0.00,,---,0.00,VWS V14.01,2013-05-08 23:43:00,
2013-05-08 19:48:00,71.8,38.7,29.97,WSW,248,0.0,1.6,30,0.00,,---,0.00,VWS V14.01,2013-05-08 23:48:00,
2013-05-08 19:53:00,71.6,37.7,29.97,SSW,202,0.0,0.0,29,0.00,,---,0.00,VWS V14.01,2013-05-08 23:53:00,
2013-05-08 19:58:00,71.4,38.4,29.94,SSE,158,0.0,0.0,30,0.00,,---,0.00,VWS V14.01,2013-05-08 23:58:00,
2013-05-08 20:03:00,71.1,38.9,29.94,ENE,68,1.3,1.3,31,0.00,,---,0.00,VWS V14.01,2013-05-09 00:03:00,
2013-05-08 20:08:00,70.9,38.8,29.94,ENE,68,2.5,2.5,31,0.00,,---,0.00,VWS V14.01,2013-05-09 00:08:00,
2013-05-08 20:13:00,70.5,39.3,29.97,NNE,22,2.2,3.1,32,0.00,,---,0.00,VWS V14.01,2013-05-09 00:13:00,
2013-05-08 20:18:00,70.2,39.0,29.97,ENE,68,3.8,3.8,32,0.00,,---,0.00,VWS V14.01,2013-05-09 00:18:00,
2013-05-08 20:23:00,69.8,38.6,29.97,NNE,22,2.5,3.8,32,0.00,,---,0.00,VWS V14.01,2013-05-09 00:23:00,
2013-05-08 20:28:00,69.4,39.1,29.97,NE,45,2.0,2.9,33,0.00,,---,0.00,VWS V14.01,2013-05-09 00:28:00,
2013-05-08 20:33:00,69.1,38.8,29.97,SE,135,2.5,2.9,33,0.00,,---,0.00,VWS V14.01,2013-05-09 00:33:00,
2013-05-08 20:38:00,68.9,38.6,29.97,ENE,68,3.8,3.8,33,0.00,,---,0.00,VWS V14.01,2013-05-09 00:38:00,
2013-05-08 20:43:00,68.5,38.3,29.97,NE,45,2.7,2.7,33,0.00,,---,0.00,VWS V14.01,2013-05-09 00:43:00,
2013-05-08 20:48:00,68.4,38.2,29.97,ENE,68,3.6,3.6,33,0.00,,---,0.00,VWS V14.01,2013-05-09 00:48:00,
2013-05-08 20:53:00,68.0,38.6,29.97,NE,45,2.9,2.9,34,0.00,,---,0.00,VWS V14.01,2013-05-09 00:53:00,
2013-05-08 20:58:00,67.6,38.3,29.97,NE,45,2.2,2.7,34,0.00,,---,0.00,VWS V14.01,2013-05-09 00:58:00,
2013-05-08 21:03:00,67.5,38.9,29.97,NE,45,1.3,2.9,35,0.00,,---,0.00,VWS V14.01,2013-05-09 01:03:00,
2013-05-08 21:08:00,67.1,38.6,29.97,NNE,22,1.3,2.9,35,0.00,,---,0.00,VWS V14.01,2013-05-09 01:08:00,
2013-05-08 21:12:00,66.7,39.0,29.97,NNE,22,2.2,2.2,36,0.00,,---,0.00,VWS V14.01,2013-05-09 01:12:00,
2013-05-08 21:17:00,66.4,38.6,29.97,NNE,22,0.0,0.0,36,0.00,,---,0.00,VWS V14.01,2013-05-09 01:17:00,
2013-05-08 21:22:00,66.0,39.0,29.97,ENE,68,2.9,2.9,37,0.00,,---,0.00,VWS V14.01,2013-05-09 01:22:00,
2013-05-08 21:27:00,65.8,39.5,30.00,NNE,22,1.3,2.2,38,0.00,,---,0.00,VWS V14.01,2013-05-09 01:27:00,
2013-05-08 21:32:00,65.5,39.2,30.00,ENE,68,3.1,3.1,38,0.00,,---,0.00,VWS V14.01,2013-05-09 01:32:00,
2013-05-08 21:37:00,65.3,39.1,30.00,NNE,22,2.0,2.0,38,0.00,,---,0.00,VWS V14.01,2013-05-09 01:37:00,
2013-05-08 21:42:00,65.1,39.6,30.00,ENE,68,2.5,2.5,39,0.00,,---,0.00,VWS V14.01,2013-05-09 01:42:00,
2013-05-08 21:47:00,64.9,39.4,30.00,ENE,68,1.6,1.6,39,0.00,,---,0.00,VWS V14.01,2013-05-09 01:47:00,
2013-05-08 21:52:00,64.6,39.1,30.00,ENE,68,0.0,1.1,39,0.00,,---,0.00,VWS V14.01,2013-05-09 01:52:00,
2013-05-08 21:57:00,64.2,39.4,30.00,ENE,68,0.0,0.0,40,0.00,,---,0.00,VWS V14.01,2013-05-09 01:57:00,
2013-05-08 22:02:00,64.0,39.2,30.00,ESE,112,0.0,0.0,40,0.00,,---,0.00,VWS V14.01,2013-05-09 02:02:00,
2013-05-08 22:07:00,63.9,39.7,30.00,ESE,112,0.0,0.0,41,0.00,,---,0.00,VWS V14.01,2013-05-09 02:07:00,
2013-05-08 22:12:00,63.3,39.9,30.00,NE,45,0.0,0.0,42,0.00,,---,0.00,VWS V14.01,2013-05-09 02:12:00,
2013-05-08 22:17:00,63.0,40.1,30.00,NE,45,0.0,0.0,43,0.00,,---,0.00,VWS V14.01,2013-05-09 02:17:00,
2013-05-08 22:22:00,62.6,39.8,30.00,NE,45,0.0,0.0,43,0.00,,---,0.00,VWS V14.01,2013-05-09 02:22:00,
2013-05-08 22:27:00,62.6,39.8,30.00,NE,45,0.0,0.0,43,0.00,,---,0.00,VWS V14.01,2013-05-09 02:27:00,
2013-05-08 22:32:00,62.2,40.1,30.00,NE,45,0.0,0.0,44,0.00,,---,0.00,VWS V14.01,2013-05-09 02:32:00,
2013-05-08 22:37:00,61.9,39.8,30.00,NE,45,0.0,0.0,44,0.00,,---,0.00,VWS V14.01,2013-05-09 02:37:00,
2013-05-08 22:42:00,61.7,40.2,30.00,NE,45,0.0,0.0,45,0.00,,---,0.00,VWS V14.01,2013-05-09 02:42:00,
2013-05-08 22:47:00,61.3,39.8,30.00,NE,45,0.0,0.0,45,0.00,,---,0.00,VWS V14.01,2013-05-09 02:47:00,
2013-05-08 22:52:00,61.2,40.2,30.00,NE,45,0.0,0.0,46,0.00,,---,0.00,VWS V14.01,2013-05-09 02:52:00,
2013-05-08 22:57:00,61.0,40.1,30.00,NE,45,0.0,0.0,46,0.00,,---,0.00,VWS V14.01,2013-05-09 02:57:00,
2013-05-08 23:02:00,60.8,39.9,30.00,ENE,68,0.0,0.0,46,0.00,,---,0.00,VWS V14.01,2013-05-09 03:02:00,
2013-05-08 23:07:00,60.6,40.3,30.00,NE,45,0.0,0.0,47,0.00,,---,0.00,VWS V14.01,2013-05-09 03:07:00,
2013-05-08 23:12:00,60.3,40.0,30.00,NNE,22,0.0,0.0,47,0.00,,---,0.00,VWS V14.01,2013-05-09 03:12:00,
2013-05-08 23:17:00,60.1,40.3,30.00,NNE,22,0.0,0.0,48,0.00,,---,0.00,VWS V14.01,2013-05-09 03:17:00,
2013-05-08 23:22:00,59.9,40.2,30.00,ESE,112,0.0,0.0,48,0.00,,---,0.00,VWS V14.01,2013-05-09 03:22:00,
2013-05-08 23:27:00,59.7,40.0,30.00,NNE,22,0.0,0.0,48,0.00,,---,0.00,VWS V14.01,2013-05-09 03:27:00,
2013-05-08 23:32:00,59.5,40.4,30.00,NNE,22,2.0,2.0,49,0.00,,---,0.00,VWS V14.01,2013-05-09 03:32:00,
2013-05-08 23:37:00,59.4,40.2,30.00,ENE,68,2.0,2.0,49,0.00,,---,0.00,VWS V14.01,2013-05-09 03:37:00,
2013-05-08 23:42:00,59.2,40.0,30.00,ENE,68,2.0,2.0,49,0.00,,---,0.00,VWS V14.01,2013-05-09 03:42:00,
2013-05-08 23:47:00,59.4,40.2,30.00,NNE,22,0.0,0.0,49,0.00,,---,0.00,VWS V14.01,2013-05-09 03:47:00,
2013-05-08 23:52:00,59.4,40.2,30.00,NNE,22,0.0,0.0,49,0.00,,---,0.00,VWS V14.01,2013-05-09 03:52:00,
2013-05-08 23:57:00,59.4,40.2,30.00,WNW,292,0.0,0.0,49,0.00,,---,0.00,VWS V14.01,2013-05-09 03:57:00,